Peshawar Weather



Peshawar's Current Weather

Temprature 20o scattered clouds

scattered clouds

Rain: 0 %

Min Temprature20o
Max Temprature20o
Humidity28
Wind Speed5.1 m/h
Sun Rise06:49:48
Sun Set18:04:43
Current Time: 23-Feb-2019 15:32:12
Lat/Lon: 34.01, 71.58




Peshawar's Geo Location




Peshawar's Weather Forecast

Time Overall Temp Min Temp Max Temp Humidity Wind Speed Rain
23-Feb-2019 (Sat)
17:00:00 clear sky 18.810 14.624 18.810 40 1.51 m/h 0 %
20:00:00 clear sky 8.280 5.134 8.280 63 1.37 m/h 0 %
23:00:00 clear sky 3.160 1.065 3.160 73 1.02 m/h 0 %
24-Feb-2019 (Sun)
02:00:00 clear sky 0.410 -0.640 0.410 72 1.11 m/h 0 %
05:00:00 clear sky -1.608 -1.608 -1.608 72 1.06 m/h 0 %
08:00:00 clear sky 0.353 0.353 0.353 67 1.06 m/h 0 %
11:00:00 clear sky 11.724 11.724 11.724 48 1.61 m/h 0 %
14:00:00 clear sky 15.431 15.431 15.431 41 1.52 m/h 0 %
17:00:00 clear sky 15.171 15.171 15.171 34 0.95 m/h 0 %
20:00:00 scattered clouds 5.743 5.743 5.743 63 0.81 m/h 0 %
23:00:00 broken clouds 2.686 2.686 2.686 79 1.06 m/h 0 %
25-Feb-2019 (Mon)
02:00:00 light rain 2.280 2.280 2.280 87 1.32 m/h 7 %
05:00:00 light rain 2.302 2.302 2.302 93 1.46 m/h 32 %
08:00:00 light rain 4.145 4.145 4.145 93 1.62 m/h 21 %
11:00:00 light rain 9.947 9.947 9.947 66 1.96 m/h 19 %
14:00:00 light rain 9.648 9.648 9.648 67 2.17 m/h 109 %
17:00:00 light rain 7.162 7.162 7.162 87 1.66 m/h 245 %
20:00:00 light rain 5.173 5.173 5.173 93 1.21 m/h 244 %
23:00:00 light rain 4.317 4.317 4.317 95 1.31 m/h 40 %
26-Feb-2019 (Tue)
02:00:00 light rain 3.076 3.076 3.076 94 1.21 m/h 3 %
05:00:00 light rain 2.322 2.322 2.322 91 1.21 m/h 6 %
08:00:00 light rain 3.782 3.782 3.782 93 1.72 m/h 6 %
11:00:00 broken clouds 7.317 7.317 7.317 88 1.62 m/h 0 %
14:00:00 light rain 10.021 10.021 10.021 86 1.66 m/h 2 %
17:00:00 scattered clouds 9.564 9.564 9.564 75 1.96 m/h 0 %
20:00:00 scattered clouds 4.511 4.511 4.511 88 1.62 m/h 0 %
23:00:00 clear sky 1.223 1.223 1.223 85 1.62 m/h 0 %
27-Feb-2019 (Wed)
02:00:00 clear sky -1.369 -1.369 -1.369 81 1.06 m/h 0 %
05:00:00 clear sky -2.806 -2.806 -2.806 78 1.1 m/h 0 %
08:00:00 clear sky -0.560 -0.560 -0.560 71 1.22 m/h 0 %
11:00:00 clear sky 8.895 8.895 8.895 71 1.51 m/h 0 %
14:00:00 clear sky 12.161 12.161 12.161 62 0.85 m/h 0 %
17:00:00 clear sky 12.148 12.148 12.148 53 1.46 m/h 0 %
20:00:00 light rain 6.617 6.617 6.617 81 1.37 m/h 9 %
23:00:00 moderate rain 5.316 5.316 5.316 100 0.22 m/h 481 %
28-Feb-2019 (Thu)
02:00:00 moderate rain 5.291 5.291 5.291 100 1.21 m/h 583 %
05:00:00 light rain 4.238 4.238 4.238 100 1.11 m/h 206 %
08:00:00 light rain 3.690 3.690 3.690 98 1.21 m/h 9 %
11:00:00 overcast clouds 7.797 7.797 7.797 96 1.61 m/h 0 %
14:00:00 broken clouds 10.454 10.454 10.454 94 1.67 m/h 0 %

Famous Cities (60)